createdAt,value
2022-09-17T00:01:04.677Z,14.48
2022-09-17T00:03:33.869Z,14.50
2022-09-17T00:06:08.086Z,14.48
2022-09-17T00:08:36.376Z,14.46
2022-09-17T00:11:14.080Z,14.40
2022-09-17T00:13:42.441Z,14.37
2022-09-17T00:16:09.491Z,14.36
2022-09-17T00:18:40.643Z,14.32
2022-09-17T00:21:15.277Z,14.31
2022-09-17T00:23:42.112Z,14.33
2022-09-17T00:26:10.249Z,14.31
2022-09-17T00:28:37.208Z,14.24
2022-09-17T00:31:07.813Z,14.18
2022-09-17T00:33:36.062Z,14.16
2022-09-17T00:36:03.567Z,14.12
2022-09-17T00:38:30.413Z,14.11
2022-09-17T00:40:57.567Z,14.09
2022-09-17T00:43:38.958Z,14.04
2022-09-17T00:46:16.374Z,14.00
2022-09-17T00:48:43.897Z,13.97
2022-09-17T00:51:11.783Z,13.99
2022-09-17T00:53:39.443Z,14.00
2022-09-17T00:56:35.784Z,13.94
2022-09-17T00:59:03.675Z,13.94
2022-09-17T01:01:30.927Z,13.91
2022-09-17T01:03:57.746Z,13.89
2022-09-17T01:06:43.810Z,13.87
2022-09-17T01:09:28.880Z,13.86
2022-09-17T01:11:56.744Z,13.88
2022-09-17T01:14:55.759Z,13.90
2022-09-17T01:17:41.691Z,13.92
2022-09-17T01:20:27.926Z,13.95
2022-09-17T01:22:55.465Z,13.95
2022-09-17T01:25:24.896Z,13.98
2022-09-17T01:28:10.880Z,13.99
2022-09-17T01:30:52.912Z,14.02
2022-09-17T01:33:23.783Z,14.03
2022-09-17T01:36:17.598Z,14.04
2022-09-17T01:38:53.020Z,14.04
2022-09-17T01:41:20.190Z,14.05
2022-09-17T01:43:52.968Z,14.02
2022-09-17T01:46:20.074Z,14.01
2022-09-17T01:48:49.680Z,14.01
2022-09-17T01:51:22.235Z,14.01
2022-09-17T01:54:00.556Z,14.00
2022-09-17T01:56:53.385Z,13.99
2022-09-17T01:59:22.349Z,14.01
2022-09-17T02:01:51.997Z,14.00
2022-09-17T02:04:30.671Z,13.97
2022-09-17T02:07:00.327Z,13.97
2022-09-17T02:09:30.179Z,13.96
2022-09-17T02:11:59.029Z,13.97
2022-09-17T02:14:30.011Z,13.96
2022-09-17T02:20:08.081Z,13.97
2022-09-17T02:22:38.339Z,13.98
2022-09-17T02:25:08.608Z,13.94
2022-09-17T02:27:43.079Z,13.94
2022-09-17T02:30:10.220Z,13.96
2022-09-17T02:32:37.539Z,13.96
2022-09-17T02:35:04.757Z,13.95
2022-09-17T02:37:31.548Z,13.97
2022-09-17T02:39:59.022Z,13.96
2022-09-17T02:42:25.855Z,13.98
2022-09-17T02:44:52.746Z,13.98
2022-09-17T02:47:33.337Z,13.97
2022-09-17T02:50:03.175Z,13.96
2022-09-17T02:52:55.158Z,13.98
2022-09-17T02:55:31.352Z,13.96
2022-09-17T02:58:13.636Z,13.96
2022-09-17T03:00:41.003Z,13.96
2022-09-17T03:03:26.917Z,13.94
2022-09-17T03:05:54.875Z,13.90
2022-09-17T03:08:27.810Z,13.89
2022-09-17T03:10:55.663Z,13.86
2022-09-17T03:13:23.034Z,13.84
2022-09-17T03:15:51.043Z,13.82
2022-09-17T03:18:18.403Z,13.79
2022-09-17T03:20:46.554Z,13.76
2022-09-17T03:23:13.334Z,13.70
2022-09-17T03:25:40.313Z,13.68
2022-09-17T03:28:11.249Z,13.67
2022-09-17T03:30:38.457Z,13.64
2022-09-17T03:33:05.299Z,13.65
2022-09-17T03:35:32.411Z,13.65
2022-09-17T03:37:59.248Z,13.60
2022-09-17T03:40:26.127Z,13.63
2022-09-17T03:42:53.219Z,13.61
2022-09-17T03:45:20.454Z,13.62
2022-09-17T03:47:47.507Z,13.60
2022-09-17T03:50:14.728Z,13.60
2022-09-17T03:52:43.044Z,13.58
2022-09-17T03:55:11.808Z,13.58
2022-09-17T03:57:39.024Z,13.59
2022-09-17T04:00:07.611Z,13.59
2022-09-17T04:02:54.696Z,13.59
2022-09-17T04:05:21.536Z,13.57
2022-09-17T04:07:48.323Z,13.56
2022-09-17T04:10:15.578Z,13.57
2022-09-17T04:12:42.450Z,13.56
2022-09-17T04:15:09.614Z,13.57
2022-09-17T04:17:36.656Z,13.57
2022-09-17T04:20:06.689Z,13.57
2022-09-17T04:22:33.463Z,13.57
2022-09-17T04:25:01.696Z,13.59
2022-09-17T04:27:30.418Z,13.61
2022-09-17T04:29:57.318Z,13.62
2022-09-17T04:32:24.450Z,13.61
2022-09-17T04:34:51.188Z,13.60
2022-09-17T04:37:17.913Z,13.60
2022-09-17T04:39:46.022Z,13.61
2022-09-17T04:42:12.853Z,13.61
2022-09-17T04:44:39.823Z,13.59
2022-09-17T04:47:07.992Z,13.59
2022-09-17T04:49:35.032Z,13.60
2022-09-17T04:52:02.906Z,13.58
2022-09-17T04:54:30.024Z,13.58
2022-09-17T04:56:56.788Z,13.56
2022-09-17T04:59:23.933Z,13.56
2022-09-17T05:01:51.501Z,13.55
2022-09-17T05:04:18.429Z,13.56
2022-09-17T05:06:45.248Z,13.54
2022-09-17T05:09:12.510Z,13.57
2022-09-17T05:11:39.294Z,13.59
2022-09-17T05:14:06.212Z,13.61
2022-09-17T05:16:33.736Z,13.63
2022-09-17T05:19:00.680Z,13.66
2022-09-17T05:21:27.442Z,13.71
2022-09-17T05:23:55.786Z,13.73
2022-09-17T05:27:36.012Z,13.91
2022-09-17T05:30:03.702Z,14.04
2022-09-17T05:32:30.492Z,14.20
2022-09-17T05:34:57.314Z,14.35
2022-09-17T05:37:24.438Z,14.52
2022-09-17T05:39:51.272Z,14.57
2022-09-17T05:42:18.155Z,14.55
2022-09-17T05:44:45.290Z,14.51
2022-09-17T05:47:12.086Z,14.45
2022-09-17T05:49:38.903Z,14.40
2022-09-17T05:52:06.061Z,14.43
2022-09-17T05:54:32.894Z,14.38
2022-09-17T05:56:59.881Z,14.30
2022-09-17T05:59:28.066Z,14.17
2022-09-17T06:01:55.007Z,14.09
2022-09-17T06:04:21.824Z,14.08
2022-09-17T06:06:48.944Z,14.08
2022-09-17T06:09:15.785Z,14.07
2022-09-17T06:11:42.635Z,14.11
2022-09-17T06:14:14.037Z,14.09
2022-09-17T06:16:40.902Z,14.05
2022-09-17T06:19:07.755Z,13.98
2022-09-17T06:21:34.846Z,14.04
2022-09-17T06:24:04.998Z,13.90
2022-09-17T06:26:31.833Z,13.88
2022-09-17T06:28:59.221Z,14.02
2022-09-17T06:34:12.393Z,13.98
2022-09-17T06:36:39.303Z,14.17
2022-09-17T06:39:06.371Z,14.36
2022-09-17T06:41:33.731Z,14.49
2022-09-17T06:44:02.223Z,14.62
2022-09-17T06:46:29.123Z,14.70
2022-09-17T06:48:56.421Z,14.70
2022-09-17T06:51:23.574Z,14.58
2022-09-17T06:53:50.343Z,14.63
2022-09-17T06:56:17.902Z,14.64
2022-09-17T06:58:44.660Z,14.76
2022-09-17T07:01:12.086Z,14.90
2022-09-17T07:03:39.539Z,14.95
2022-09-17T07:06:10.892Z,14.93
2022-09-17T07:08:39.565Z,14.83
2022-09-17T07:11:06.869Z,14.86
2022-09-17T07:13:33.847Z,14.89
2022-09-17T07:16:01.760Z,14.93
2022-09-17T07:18:29.400Z,14.98
2022-09-17T07:20:58.360Z,15.03
2022-09-17T07:23:28.459Z,15.06
2022-09-17T07:25:56.230Z,15.05
2022-09-17T07:28:23.286Z,15.04
2022-09-17T07:30:51.003Z,15.02
2022-09-17T07:33:19.212Z,15.09
2022-09-17T07:35:59.346Z,15.09
2022-09-17T07:38:27.188Z,15.12
2022-09-17T07:40:59.475Z,15.15
2022-09-17T07:43:27.225Z,15.19
2022-09-17T07:45:54.563Z,15.17
2022-09-17T07:48:24.215Z,15.24
2022-09-17T07:50:55.141Z,15.24
2022-09-17T07:53:22.774Z,14.93
2022-09-17T07:55:57.290Z,14.98
2022-09-17T07:58:28.094Z,14.87
2022-09-17T08:01:02.738Z,14.81
2022-09-17T08:03:37.667Z,14.91
2022-09-17T08:06:05.407Z,15.00
2022-09-17T08:08:34.051Z,15.12
2022-09-17T08:11:02.088Z,15.17
2022-09-17T08:13:29.788Z,15.17
2022-09-17T08:16:15.856Z,15.31
2022-09-17T08:18:43.759Z,15.42
2022-09-17T08:21:12.299Z,15.62
2022-09-17T08:23:39.983Z,15.59
2022-09-17T08:26:08.647Z,15.52
2022-09-17T08:28:36.083Z,15.51
2022-09-17T08:31:04.546Z,15.54
2022-09-17T08:33:34.000Z,15.44
2022-09-17T08:36:01.282Z,15.37
2022-09-17T08:38:29.350Z,15.24
2022-09-17T08:41:11.520Z,15.17
2022-09-17T08:43:47.816Z,15.13
2022-09-17T08:46:15.904Z,15.19
2022-09-17T08:48:45.883Z,15.15
2022-09-17T08:51:36.946Z,15.08
2022-09-17T08:54:24.147Z,15.13
2022-09-17T08:56:56.363Z,15.33
2022-09-17T08:59:34.782Z,15.13
2022-09-17T09:02:32.888Z,14.99
2022-09-17T09:05:06.986Z,15.17
2022-09-17T09:07:42.325Z,14.79
2022-09-17T09:10:19.862Z,14.49
2022-09-17T09:12:47.239Z,14.46
2022-09-17T09:15:18.998Z,14.53
2022-09-17T09:17:47.032Z,14.71
2022-09-17T09:20:29.414Z,14.70
2022-09-17T09:23:02.192Z,14.78
2022-09-17T09:25:38.744Z,14.87
2022-09-17T09:28:22.264Z,15.11
2022-09-17T09:31:08.162Z,14.79
2022-09-17T09:33:39.397Z,14.65
2022-09-17T09:36:08.117Z,14.76
2022-09-17T09:38:44.326Z,14.88
2022-09-17T09:41:14.735Z,14.89
2022-09-17T09:44:02.749Z,14.81
2022-09-17T09:46:34.507Z,14.85
2022-09-17T09:49:20.491Z,14.85
2022-09-17T09:51:51.109Z,14.88
2022-09-17T09:54:23.713Z,14.93
2022-09-17T09:56:59.732Z,14.87
2022-09-17T09:59:26.934Z,14.91
2022-09-17T10:01:54.642Z,14.93
2022-09-17T10:04:25.946Z,15.19
2022-09-17T10:06:53.831Z,15.08
2022-09-17T10:09:24.881Z,15.08
2022-09-17T10:12:01.956Z,15.11
2022-09-17T10:14:30.137Z,15.12
2022-09-17T10:17:16.515Z,15.26
2022-09-17T10:19:44.939Z,15.41
2022-09-17T10:22:19.312Z,15.47
2022-09-17T10:24:46.798Z,15.54
2022-09-17T10:27:14.860Z,15.46
2022-09-17T10:29:45.996Z,15.51
2022-09-17T10:32:16.991Z,15.57
2022-09-17T10:34:57.765Z,15.59
2022-09-17T10:37:46.110Z,15.78
2022-09-17T10:40:19.482Z,15.49
2022-09-17T10:42:46.733Z,15.24
2022-09-17T10:45:27.377Z,15.25
2022-09-17T10:47:55.894Z,15.46
2022-09-17T10:50:27.919Z,15.72
2022-09-17T10:52:57.440Z,16.06
2022-09-17T10:55:43.041Z,16.25
2022-09-17T10:58:19.652Z,16.54
2022-09-17T11:00:59.171Z,16.76
2022-09-17T11:03:46.541Z,16.86
2022-09-17T11:06:20.187Z,16.59
2022-09-17T11:08:55.620Z,16.81
2022-09-17T11:11:22.614Z,16.64
2022-09-17T11:14:13.047Z,16.50
2022-09-17T11:16:46.611Z,16.63
2022-09-17T11:19:16.729Z,16.83
2022-09-17T11:21:46.457Z,16.83
2022-09-17T11:24:15.698Z,16.72
2022-09-17T11:26:47.028Z,16.81
2022-09-17T11:29:33.464Z,16.83
2022-09-17T11:32:06.599Z,16.99
2022-09-17T11:34:47.744Z,16.87
2022-09-17T11:37:21.064Z,16.83
2022-09-17T11:39:50.141Z,16.80
2022-09-17T11:42:23.331Z,16.59
2022-09-17T11:44:52.939Z,16.68
2022-09-17T11:47:25.599Z,16.68
2022-09-17T11:49:57.669Z,16.67
2022-09-17T11:52:27.568Z,16.71
2022-09-17T11:54:57.015Z,16.80
2022-09-17T11:57:32.783Z,16.53
2022-09-17T12:00:07.571Z,16.64
2022-09-17T12:02:46.665Z,16.70
2022-09-17T12:05:28.950Z,16.79
2022-09-17T12:07:55.741Z,16.75
2022-09-17T12:10:34.220Z,16.75
2022-09-17T12:13:09.675Z,16.68
2022-09-17T12:15:38.634Z,16.84
2022-09-17T12:18:32.146Z,16.50
2022-09-17T12:21:02.795Z,16.40
2022-09-17T12:23:37.261Z,16.47
2022-09-17T12:26:04.375Z,16.44
2022-09-17T12:28:38.664Z,16.20
2022-09-17T12:31:09.432Z,16.21
2022-09-17T12:33:42.876Z,16.33
2022-09-17T12:36:13.302Z,16.22
2022-09-17T12:38:42.841Z,15.97
2022-09-17T12:41:19.067Z,15.86
2022-09-17T12:44:01.351Z,15.63
2022-09-17T12:46:28.589Z,15.56
2022-09-17T12:48:58.530Z,15.55
2022-09-17T12:51:25.281Z,15.60
2022-09-17T12:54:01.295Z,15.69
2022-09-17T12:56:28.109Z,15.94
2022-09-17T12:58:58.319Z,15.96
2022-09-17T13:01:31.938Z,15.88
2022-09-17T13:04:17.731Z,15.97
2022-09-17T13:07:03.180Z,16.02
2022-09-17T13:09:49.815Z,16.19
2022-09-17T13:12:35.058Z,16.20
2022-09-17T13:15:34.976Z,16.25
2022-09-17T13:18:23.505Z,16.09
2022-09-17T13:21:01.998Z,16.07
2022-09-17T13:23:30.563Z,16.07
2022-09-17T13:26:00.931Z,16.04
2022-09-17T13:28:44.613Z,15.99
2022-09-17T13:31:20.218Z,15.59
2022-09-17T13:33:57.300Z,15.51
2022-09-17T13:36:36.446Z,15.59
2022-09-17T13:39:03.595Z,15.79
2022-09-17T13:41:32.837Z,15.69
2022-09-17T13:44:02.977Z,15.61
2022-09-17T13:46:33.800Z,15.67
2022-09-17T13:49:02.710Z,15.61
2022-09-17T13:51:32.539Z,15.64
2022-09-17T13:54:10.489Z,15.62
2022-09-17T13:56:46.210Z,15.59
2022-09-17T13:59:14.948Z,15.55
2022-09-17T14:01:48.183Z,15.40
2022-09-17T14:04:34.021Z,15.32
2022-09-17T14:07:01.066Z,15.40
2022-09-17T14:09:37.217Z,15.46
2022-09-17T14:12:23.109Z,15.44
2022-09-17T14:14:51.378Z,15.34
2022-09-17T14:17:37.053Z,15.26
2022-09-17T14:20:05.434Z,15.12
2022-09-17T14:22:33.086Z,14.93
2022-09-17T14:24:59.856Z,14.85
2022-09-17T14:27:38.720Z,14.83
2022-09-17T14:30:15.259Z,14.79
2022-09-17T14:32:54.373Z,14.80
2022-09-17T14:35:21.709Z,14.81
2022-09-17T14:38:11.950Z,14.92
2022-09-17T14:40:43.265Z,14.86
2022-09-17T14:43:30.948Z,14.93
2022-09-17T14:45:58.378Z,14.87
2022-09-17T14:48:27.845Z,14.80
2022-09-17T14:51:13.237Z,14.70
2022-09-17T14:53:40.418Z,14.81
2022-09-17T14:56:09.874Z,14.68
2022-09-17T14:58:40.390Z,14.69
2022-09-17T15:01:20.161Z,14.62
2022-09-17T15:03:46.944Z,14.61
2022-09-17T15:06:21.769Z,14.62
2022-09-17T15:08:49.163Z,14.57
2022-09-17T15:11:17.590Z,14.54
2022-09-17T15:13:50.050Z,14.68
2022-09-17T15:16:22.661Z,14.46
2022-09-17T15:18:52.419Z,14.16
2022-09-17T15:21:24.507Z,14.14
2022-09-17T15:23:52.874Z,14.11
2022-09-17T15:26:22.815Z,14.07
2022-09-17T15:28:49.810Z,14.06
2022-09-17T15:31:20.404Z,14.10
2022-09-17T15:33:47.754Z,14.19
2022-09-17T15:36:22.377Z,14.24
2022-09-17T15:38:50.333Z,14.23
2022-09-17T15:41:31.094Z,14.29
2022-09-17T15:44:28.465Z,14.32
2022-09-17T15:46:59.477Z,14.40
2022-09-17T15:49:28.313Z,14.30
2022-09-17T15:51:55.202Z,14.16
2022-09-17T15:54:30.392Z,14.12
2022-09-17T15:57:01.618Z,14.09
2022-09-17T15:59:29.356Z,14.06
2022-09-17T16:01:57.366Z,14.04
2022-09-17T16:04:26.632Z,14.05
2022-09-17T16:07:11.676Z,14.04
2022-09-17T16:09:51.925Z,14.06
2022-09-17T16:12:20.284Z,14.04
2022-09-17T16:14:48.339Z,14.03
2022-09-17T16:17:37.348Z,14.07
2022-09-17T16:20:09.614Z,14.05
2022-09-17T16:22:36.516Z,14.01
2022-09-17T16:25:03.388Z,14.03
2022-09-17T16:27:33.100Z,14.04
2022-09-17T16:30:04.875Z,14.08
2022-09-17T16:32:32.148Z,13.98
2022-09-17T16:35:00.379Z,13.99
2022-09-17T16:37:27.429Z,13.98
2022-09-17T16:39:54.818Z,14.01
2022-09-17T16:42:21.671Z,14.02
2022-09-17T16:44:48.449Z,14.00
2022-09-17T16:47:15.581Z,14.00
2022-09-17T16:49:42.682Z,13.97
2022-09-17T16:52:09.704Z,13.86
2022-09-17T16:54:36.761Z,13.86
2022-09-17T16:57:03.763Z,13.88
2022-09-17T16:59:31.562Z,13.90
2022-09-17T17:01:58.943Z,13.85
2022-09-17T17:04:25.888Z,13.88
2022-09-17T17:06:52.684Z,13.90
2022-09-17T17:09:20.936Z,13.92
2022-09-17T17:11:47.919Z,13.84
2022-09-17T17:14:15.063Z,13.85
2022-09-17T17:16:43.716Z,13.88
2022-09-17T17:19:12.099Z,13.94
2022-09-17T17:21:39.089Z,13.93
2022-09-17T17:24:07.606Z,13.91
2022-09-17T17:26:34.879Z,13.92
2022-09-17T17:29:02.586Z,13.97
2022-09-17T17:31:30.312Z,13.96
2022-09-17T17:33:57.873Z,13.95
2022-09-17T17:36:25.002Z,13.90
2022-09-17T17:38:56.521Z,13.91
2022-09-17T17:41:25.958Z,13.97
2022-09-17T17:43:53.758Z,13.93
2022-09-17T17:46:23.293Z,13.75
2022-09-17T17:48:52.177Z,13.77
2022-09-17T17:51:19.460Z,13.87
2022-09-17T17:53:46.739Z,13.92
2022-09-17T17:56:13.583Z,13.93
2022-09-17T17:58:40.829Z,13.88
2022-09-17T18:01:19.211Z,13.84
2022-09-17T18:03:47.046Z,13.85
2022-09-17T18:06:13.949Z,13.87
2022-09-17T18:08:43.739Z,13.84
2022-09-17T18:11:11.452Z,13.87
2022-09-17T18:13:39.307Z,13.92
2022-09-17T18:16:09.308Z,13.84
2022-09-17T18:18:43.579Z,13.91
2022-09-17T18:21:12.575Z,13.80
2022-09-17T18:23:40.441Z,13.66
2022-09-17T18:26:10.267Z,13.64
2022-09-17T18:28:39.175Z,13.63
2022-09-17T18:31:12.531Z,13.66
2022-09-17T18:33:39.726Z,13.67
2022-09-17T18:36:06.866Z,13.62
2022-09-17T18:38:35.543Z,13.62
2022-09-17T18:41:03.334Z,13.66
2022-09-17T18:43:31.498Z,13.62
2022-09-17T18:45:58.545Z,13.55
2022-09-17T18:48:25.315Z,13.48
2022-09-17T18:51:02.936Z,13.38
2022-09-17T18:53:31.116Z,13.26
2022-09-17T18:56:02.643Z,13.20
2022-09-17T18:58:30.832Z,13.14
2022-09-17T19:00:58.262Z,13.16
2022-09-17T19:03:25.084Z,13.18
2022-09-17T19:05:52.595Z,13.18
2022-09-17T19:08:23.027Z,13.17
2022-09-17T19:10:50.826Z,13.17
2022-09-17T19:13:18.148Z,13.16
2022-09-17T19:15:45.268Z,13.19
2022-09-17T19:18:12.740Z,13.21
2022-09-17T19:20:40.039Z,13.22
2022-09-17T19:23:08.008Z,13.17
2022-09-17T19:25:35.949Z,13.17
2022-09-17T19:28:03.911Z,13.15
2022-09-17T19:30:31.864Z,13.16
2022-09-17T19:32:58.824Z,13.18
2022-09-17T19:35:26.771Z,13.16
2022-09-17T19:37:58.926Z,12.96
2022-09-17T19:40:26.248Z,12.94
2022-09-17T19:42:54.168Z,12.98
2022-09-17T19:45:24.999Z,12.98
2022-09-17T19:47:51.948Z,12.91
2022-09-17T19:53:09.692Z,12.76
2022-09-17T19:55:38.169Z,12.74
2022-09-17T19:58:05.545Z,12.63
2022-09-17T20:00:32.810Z,12.62
2022-09-17T20:03:00.156Z,12.64
2022-09-17T20:05:31.141Z,12.62
2022-09-17T20:07:58.462Z,12.62
2022-09-17T20:10:26.058Z,12.66
2022-09-17T20:12:53.133Z,12.63
2022-09-17T20:15:20.282Z,12.62
2022-09-17T20:17:48.766Z,12.62
2022-09-17T20:20:18.633Z,12.63
2022-09-17T20:22:49.442Z,12.64
2022-09-17T20:25:18.543Z,12.66
2022-09-17T20:27:46.905Z,12.65
2022-09-17T20:30:15.042Z,12.55
2022-09-17T20:32:42.808Z,12.54
2022-09-17T20:35:10.065Z,12.53
2022-09-17T20:38:33.120Z,12.54
2022-09-17T20:40:24.823Z,12.47
2022-09-17T20:42:52.001Z,12.49
2022-09-17T20:45:18.775Z,12.50
2022-09-17T20:47:48.042Z,12.55
2022-09-17T20:50:15.258Z,12.51
2022-09-17T20:53:11.939Z,12.45
2022-09-17T20:55:39.867Z,12.37
2022-09-17T20:58:08.676Z,12.29
2022-09-17T21:00:36.962Z,12.30
2022-09-17T21:03:04.357Z,12.34
2022-09-17T21:05:31.160Z,12.21
2022-09-17T21:07:58.543Z,12.14
2022-09-17T21:10:26.060Z,12.15
2022-09-17T21:12:52.902Z,12.12
2022-09-17T21:15:20.441Z,12.08
2022-09-17T21:17:48.768Z,12.12
2022-09-17T21:20:15.621Z,12.09
2022-09-17T21:22:44.126Z,12.04
2022-09-17T21:25:11.777Z,11.99
2022-09-17T21:27:38.703Z,11.97
2022-09-17T21:30:09.591Z,11.99
2022-09-17T21:32:39.163Z,11.99
2022-09-17T21:35:06.251Z,12.00
2022-09-17T21:37:33.362Z,12.02
2022-09-17T21:40:22.404Z,11.99
2022-09-17T21:42:49.726Z,11.95
2022-09-17T21:45:17.914Z,11.93
2022-09-17T21:47:44.765Z,11.86
2022-09-17T21:50:11.719Z,11.87
2022-09-17T21:52:41.018Z,11.91
2022-09-17T21:55:10.230Z,11.84
2022-09-17T21:57:37.717Z,11.81
2022-09-17T22:00:07.146Z,11.83
2022-09-17T22:02:54.285Z,11.86
2022-09-17T22:05:21.884Z,11.82
2022-09-17T22:07:48.879Z,11.79
2022-09-17T22:10:16.847Z,11.79
2022-09-17T22:12:44.274Z,11.75
2022-09-17T22:15:11.213Z,11.73
2022-09-17T22:17:38.234Z,11.73
2022-09-17T22:20:08.022Z,11.70
2022-09-17T22:22:34.805Z,11.67
2022-09-17T22:25:01.731Z,11.69
2022-09-17T22:27:30.098Z,11.57
2022-09-17T22:29:58.243Z,11.56
2022-09-17T22:32:26.486Z,11.56
2022-09-17T22:34:55.610Z,11.57
2022-09-17T22:37:24.094Z,11.55
2022-09-17T22:39:50.992Z,11.50
2022-09-17T22:42:18.712Z,11.45
2022-09-17T22:44:45.789Z,11.42
2022-09-17T22:47:12.548Z,11.41
2022-09-17T22:49:40.929Z,11.38
2022-09-17T22:52:09.713Z,11.37
2022-09-17T22:54:40.927Z,11.37
2022-09-17T22:57:08.730Z,11.35
2022-09-17T22:59:35.585Z,11.35
2022-09-17T23:02:02.618Z,11.36
2022-09-17T23:04:31.237Z,11.33
2022-09-17T23:07:00.793Z,11.25
2022-09-17T23:09:28.509Z,11.23
2022-09-17T23:11:55.757Z,11.24
2022-09-17T23:14:22.760Z,11.27
2022-09-17T23:16:49.608Z,11.20
2022-09-17T23:19:18.097Z,11.18
2022-09-17T23:21:45.469Z,11.10
2022-09-17T23:24:20.427Z,11.07
2022-09-17T23:26:48.170Z,11.06
2022-09-17T23:29:15.338Z,11.05
2022-09-17T23:31:43.582Z,11.02
2022-09-17T23:34:11.518Z,11.05
2022-09-17T23:36:39.717Z,11.00
2022-09-17T23:39:07.310Z,10.95
2022-09-17T23:41:40.585Z,10.95
2022-09-17T23:44:13.698Z,10.92
2022-09-17T23:46:42.190Z,10.91
2022-09-17T23:49:10.700Z,10.94
2022-09-17T23:51:40.094Z,10.90
2022-09-17T23:54:07.574Z,10.92
2022-09-17T23:56:34.917Z,10.95
2022-09-17T23:59:02.054Z,10.86
